Napa, CA

5:43 PM PDT on July 01, 2015 (GMT -0700)
Napa County | | Change Station
CLOSE
Current Station
Airport
Location: Napa County,
Elevation: 33 ft
Nearby Weather Stations
Active Advisory: Heat Advisory Active Notice: Record Report

Elev 33 ft 38.21 °N, 122.28 °W | Updated 49 minutes ago

Clear
Clear
78 °F
Feels Like 78 °F
N
13
Wind Variable Wind from South

Today
High -- | Low -- °F
--% Chance of Precip.
Yesterday
High -- | Low -- °F
Precip. -- in
5:49 AM 8:36 PM
Full, 100% visible
Pressure 29.86 in
Visibility 10.0 miles
Clouds Clear
Dew Point 58 °F
Humidity 50%
Rainfall 0.00 in
Snow Depth Not available.
UV 5 out of 12
Pollen 5.50 out of 12
Air Quality Not available.
Flu Activity Not available.
METAR KAPC 012354Z 18011KT 10SM CLR 26/14 A2988 RMK AO2 SLP111 T02560144 10283 20233 55007

More Conditions Fewer Conditions

Pressure 29.86 in
Visibility 10.0 miles
Clouds Clear
Dew Point 58 °F
Humidity 50%
Rainfall 0.00 in
Snow Depth Not available.
UV 5 out of 12
Pollen 5.50 out of 12
Air Quality Not available.
Flu Activity Not available.
METAR KAPC 012354Z 18011KT 10SM CLR 26/14 A2988 RMK AO2 SLP111 T02560144 10283 20233 55007

More Conditions Fewer Conditions

10-Day Weather Forecast

×

Almanac

Astronomy

Jul. 01, 2015 Rise Set
Actual Time
Civil Twilight
Nautical Twilight
Astronomical Twilight
Moon
Length of Visible Light
Length of Day
Tomorrow will be .
, % of the Moon is Illuminated

Today's Extremes

State Highs State Lows

Community

WunderPhotos

Upload Photos

1,834,355 photos uploaded!

WunderBlogs® & News

Nearby

Air Quality

  Air Quality AQ Index Pollutant
Not available.

Snow Depth

Station Depth Elevation

Earthquake Activity

City Distance Mag. Time & Date
Minimum magnitude displayed is 2.5.

Coastal Water Temperatures

Place Temperature

Stations

Nearby Weather Stations

Station Location Temp. Windchill Dew Point Humidity Wind Precip. Elev Updated Type
                   
Heat Advisory
Statement as of 4:36 PM PDT on July 01, 2015

... Heat advisory remains in effect until 9 PM PDT this evening...

A heat advisory remains in effect until 9 PM PDT this evening.

* Locations: the North Bay area... the East Bay area and the Santa
Clara Valley.

* Timing: temperatures are beginning to peak this afternoon and
will remain hot into the early evening hours.

* Temperatures: inland temperatures are hovering around the mid 90s
to 105.

Precautionary/preparedness actions...

A heat advisory means that a period of hot temperatures is
expected. The combination of hot temperatures and high humidity
will combine to create a situation in which heat illnesses are
possible. Drink plenty of fluids... stay in an air-conditioned
room... stay out of the sun... and check up on relatives and
neighbors.